sensor_id;sensor_type;location;lat;lon;timestamp;P1;durP1;ratioP1;P2;durP2;ratioP2
76136;SDS011;68622;53.128;17.966;2023-06-05T00:01:13;4.50;;;1.10;;
76136;SDS011;68622;53.128;17.966;2023-06-05T00:03:49;6.60;;;0.80;;
76136;SDS011;68622;53.128;17.966;2023-06-05T00:06:15;3.50;;;1.30;;
76136;SDS011;68622;53.128;17.966;2023-06-05T00:08:42;4.90;;;1.00;;
76136;SDS011;68622;53.128;17.966;2023-06-05T00:11:09;3.90;;;0.90;;
76136;SDS011;68622;53.128;17.966;2023-06-05T00:13:35;3.70;;;0.70;;
76136;SDS011;68622;53.128;17.966;2023-06-05T00:16:02;5.10;;;1.00;;
76136;SDS011;68622;53.128;17.966;2023-06-05T00:18:30;3.20;;;0.70;;
76136;SDS011;68622;53.128;17.966;2023-06-05T00:20:57;5.30;;;1.30;;
76136;SDS011;68622;53.128;17.966;2023-06-05T00:23:23;4.60;;;1.00;;
76136;SDS011;68622;53.128;17.966;2023-06-05T00:25:50;5.50;;;1.10;;
76136;SDS011;68622;53.128;17.966;2023-06-05T00:28:16;3.70;;;0.80;;
76136;SDS011;68622;53.128;17.966;2023-06-05T00:30:44;4.10;;;0.90;;
76136;SDS011;68622;53.128;17.966;2023-06-05T00:33:11;12.90;;;1.90;;
76136;SDS011;68622;53.128;17.966;2023-06-05T00:35:38;4.70;;;0.90;;
76136;SDS011;68622;53.128;17.966;2023-06-05T00:38:05;3.50;;;0.90;;
76136;SDS011;68622;53.128;17.966;2023-06-05T00:40:33;5.30;;;1.60;;
76136;SDS011;68622;53.128;17.966;2023-06-05T00:42:59;4.00;;;0.90;;
76136;SDS011;68622;53.128;17.966;2023-06-05T00:45:28;5.20;;;1.10;;
76136;SDS011;68622;53.128;17.966;2023-06-05T00:47:54;5.00;;;1.00;;
76136;SDS011;68622;53.128;17.966;2023-06-05T00:50:21;3.90;;;0.90;;
76136;SDS011;68622;53.128;17.966;2023-06-05T00:52:48;3.20;;;0.90;;
76136;SDS011;68622;53.128;17.966;2023-06-05T00:55:16;3.70;;;1.00;;
76136;SDS011;68622;53.128;17.966;2023-06-05T00:57:44;5.20;;;0.90;;
76136;SDS011;68622;53.128;17.966;2023-06-05T01:00:10;7.30;;;1.20;;
76136;SDS011;68622;53.128;17.966;2023-06-05T01:02:40;6.10;;;1.40;;
76136;SDS011;68622;53.128;17.966;2023-06-05T01:05:08;4.40;;;1.10;;
76136;SDS011;68622;53.128;17.966;2023-06-05T01:07:35;6.30;;;1.00;;
76136;SDS011;68622;53.128;17.966;2023-06-05T01:10:08;3.70;;;0.90;;
76136;SDS011;68622;53.128;17.966;2023-06-05T01:12:37;4.90;;;1.00;;
76136;SDS011;68622;53.128;17.966;2023-06-05T01:15:12;3.80;;;1.00;;
76136;SDS011;68622;53.128;17.966;2023-06-05T01:17:42;3.80;;;0.90;;
76136;SDS011;68622;53.128;17.966;2023-06-05T01:20:13;5.10;;;1.20;;
76136;SDS011;68622;53.128;17.966;2023-06-05T01:22:40;4.90;;;1.10;;
76136;SDS011;68622;53.128;17.966;2023-06-05T01:25:07;4.60;;;1.10;;
76136;SDS011;68622;53.128;17.966;2023-06-05T01:27:44;7.30;;;1.20;;
76136;SDS011;68622;53.128;17.966;2023-06-05T01:30:23;5.00;;;1.30;;
76136;SDS011;68622;53.128;17.966;2023-06-05T01:32:57;5.30;;;1.00;;
76136;SDS011;68622;53.128;17.966;2023-06-05T01:35:31;4.60;;;1.20;;
76136;SDS011;68622;53.128;17.966;2023-06-05T01:38:00;4.10;;;1.10;;
76136;SDS011;68622;53.128;17.966;2023-06-05T01:40:32;3.90;;;0.90;;
76136;SDS011;68622;53.128;17.966;2023-06-05T01:43:02;5.60;;;1.10;;
76136;SDS011;68622;53.128;17.966;2023-06-05T01:45:29;5.40;;;1.10;;
76136;SDS011;68622;53.128;17.966;2023-06-05T01:47:57;4.30;;;0.90;;
76136;SDS011;68622;53.128;17.966;2023-06-05T01:50:23;4.70;;;1.20;;
76136;SDS011;68622;53.128;17.966;2023-06-05T01:52:51;5.30;;;1.40;;
76136;SDS011;68622;53.128;17.966;2023-06-05T01:55:19;5.80;;;1.60;;
76136;SDS011;68622;53.128;17.966;2023-06-05T01:57:50;4.80;;;1.10;;
76136;SDS011;68622;53.128;17.966;2023-06-05T02:00:17;5.10;;;1.30;;
76136;SDS011;68622;53.128;17.966;2023-06-05T02:02:46;6.10;;;1.40;;
76136;SDS011;68622;53.128;17.966;2023-06-05T02:05:15;3.90;;;1.30;;
76136;SDS011;68622;53.128;17.966;2023-06-05T02:07:46;5.40;;;1.40;;
76136;SDS011;68622;53.128;17.966;2023-06-05T02:10:15;6.40;;;1.40;;
76136;SDS011;68622;53.128;17.966;2023-06-05T02:12:45;5.30;;;1.10;;
76136;SDS011;68622;53.128;17.966;2023-06-05T02:15:12;6.30;;;1.50;;
76136;SDS011;68622;53.128;17.966;2023-06-05T02:17:44;6.50;;;1.50;;
76136;SDS011;68622;53.128;17.966;2023-06-05T02:20:16;5.70;;;1.50;;
76136;SDS011;68622;53.128;17.966;2023-06-05T02:22:43;7.90;;;1.90;;
76136;SDS011;68622;53.128;17.966;2023-06-05T02:25:16;5.70;;;1.80;;
76136;SDS011;68622;53.128;17.966;2023-06-05T02:27:43;8.70;;;1.60;;
76136;SDS011;68622;53.128;17.966;2023-06-05T02:30:10;6.90;;;2.20;;
76136;SDS011;68622;53.128;17.966;2023-06-05T02:32:38;7.80;;;2.00;;
76136;SDS011;68622;53.128;17.966;2023-06-05T02:35:10;8.90;;;2.30;;
76136;SDS011;68622;53.128;17.966;2023-06-05T02:37:38;8.20;;;1.90;;
76136;SDS011;68622;53.128;17.966;2023-06-05T02:40:11;8.40;;;2.30;;
76136;SDS011;68622;53.128;17.966;2023-06-05T02:42:39;8.50;;;2.10;;
76136;SDS011;68622;53.128;17.966;2023-06-05T02:45:07;6.90;;;1.90;;
76136;SDS011;68622;53.128;17.966;2023-06-05T02:47:34;8.80;;;1.60;;
76136;SDS011;68622;53.128;17.966;2023-06-05T02:50:02;15.40;;;3.40;;
76136;SDS011;68622;53.128;17.966;2023-06-05T02:52:30;8.80;;;2.10;;
76136;SDS011;68622;53.128;17.966;2023-06-05T02:55:01;5.70;;;1.50;;
76136;SDS011;68622;53.128;17.966;2023-06-05T02:57:31;10.50;;;2.20;;
76136;SDS011;68622;53.128;17.966;2023-06-05T03:00:00;4.90;;;1.60;;
76136;SDS011;68622;53.128;17.966;2023-06-05T03:02:29;6.80;;;1.80;;
76136;SDS011;68622;53.128;17.966;2023-06-05T03:04:55;8.20;;;1.70;;
76136;SDS011;68622;53.128;17.966;2023-06-05T03:07:24;7.50;;;1.90;;
76136;SDS011;68622;53.128;17.966;2023-06-05T03:09:52;8.20;;;2.00;;
76136;SDS011;68622;53.128;17.966;2023-06-05T03:12:19;7.90;;;2.00;;
76136;SDS011;68622;53.128;17.966;2023-06-05T03:14:45;5.80;;;1.60;;
76136;SDS011;68622;53.128;17.966;2023-06-05T03:17:12;6.70;;;1.90;;
76136;SDS011;68622;53.128;17.966;2023-06-05T03:19:39;6.20;;;1.70;;
76136;SDS011;68622;53.128;17.966;2023-06-05T03:22:06;9.00;;;2.10;;
76136;SDS011;68622;53.128;17.966;2023-06-05T03:24:34;9.00;;;3.00;;
76136;SDS011;68622;53.128;17.966;2023-06-05T03:27:04;7.50;;;1.60;;
76136;SDS011;68622;53.128;17.966;2023-06-05T03:29:31;8.10;;;1.90;;
76136;SDS011;68622;53.128;17.966;2023-06-05T03:31:58;10.60;;;2.40;;
76136;SDS011;68622;53.128;17.966;2023-06-05T03:34:25;10.80;;;2.10;;
76136;SDS011;68622;53.128;17.966;2023-06-05T03:36:53;6.50;;;1.80;;
76136;SDS011;68622;53.128;17.966;2023-06-05T03:39:19;10.00;;;2.50;;
76136;SDS011;68622;53.128;17.966;2023-06-05T03:41:47;9.60;;;2.00;;
76136;SDS011;68622;53.128;17.966;2023-06-05T03:44:14;6.80;;;2.10;;
76136;SDS011;68622;53.128;17.966;2023-06-05T03:46:41;11.60;;;2.90;;
76136;SDS011;68622;53.128;17.966;2023-06-05T03:49:08;8.60;;;2.40;;
76136;SDS011;68622;53.128;17.966;2023-06-05T03:51:35;8.70;;;1.60;;
76136;SDS011;68622;53.128;17.966;2023-06-05T03:54:03;9.70;;;2.70;;
76136;SDS011;68622;53.128;17.966;2023-06-05T03:56:31;7.50;;;2.10;;
76136;SDS011;68622;53.128;17.966;2023-06-05T03:59:03;6.00;;;1.90;;
76136;SDS011;68622;53.128;17.966;2023-06-05T04:01:36;6.60;;;1.80;;
76136;SDS011;68622;53.128;17.966;2023-06-05T04:04:06;7.90;;;2.60;;
76136;SDS011;68622;53.128;17.966;2023-06-05T04:06:33;5.90;;;1.90;;
76136;SDS011;68622;53.128;17.966;2023-06-05T04:09:01;5.80;;;2.00;;
76136;SDS011;68622;53.128;17.966;2023-06-05T04:11:29;9.50;;;2.80;;
76136;SDS011;68622;53.128;17.966;2023-06-05T04:13:59;8.40;;;2.10;;
76136;SDS011;68622;53.128;17.966;2023-06-05T04:16:26;7.20;;;3.20;;
76136;SDS011;68622;53.128;17.966;2023-06-05T04:18:52;12.60;;;3.80;;
76136;SDS011;68622;53.128;17.966;2023-06-05T04:21:19;5.30;;;2.10;;
76136;SDS011;68622;53.128;17.966;2023-06-05T04:23:46;7.60;;;2.40;;
76136;SDS011;68622;53.128;17.966;2023-06-05T04:26:13;9.50;;;3.00;;
76136;SDS011;68622;53.128;17.966;2023-06-05T04:28:42;7.70;;;2.60;;
76136;SDS011;68622;53.128;17.966;2023-06-05T04:31:10;12.00;;;2.50;;
76136;SDS011;68622;53.128;17.966;2023-06-05T04:33:37;9.10;;;2.90;;
76136;SDS011;68622;53.128;17.966;2023-06-05T04:36:03;6.80;;;3.20;;
76136;SDS011;68622;53.128;17.966;2023-06-05T04:38:31;10.40;;;3.40;;
76136;SDS011;68622;53.128;17.966;2023-06-05T04:40:58;10.20;;;3.10;;
76136;SDS011;68622;53.128;17.966;2023-06-05T04:43:25;5.80;;;2.20;;
76136;SDS011;68622;53.128;17.966;2023-06-05T04:45:52;10.20;;;3.20;;
76136;SDS011;68622;53.128;17.966;2023-06-05T04:48:20;9.40;;;2.80;;
76136;SDS011;68622;53.128;17.966;2023-06-05T04:50:47;12.10;;;3.20;;
76136;SDS011;68622;53.128;17.966;2023-06-05T04:53:15;9.90;;;3.80;;
76136;SDS011;68622;53.128;17.966;2023-06-05T04:55:44;9.50;;;3.30;;
76136;SDS011;68622;53.128;17.966;2023-06-05T04:58:11;7.60;;;2.70;;
76136;SDS011;68622;53.128;17.966;2023-06-05T05:00:38;14.30;;;3.40;;
76136;SDS011;68622;53.128;17.966;2023-06-05T05:03:06;7.40;;;3.80;;
76136;SDS011;68622;53.128;17.966;2023-06-05T05:05:33;9.10;;;3.10;;
76136;SDS011;68622;53.128;17.966;2023-06-05T05:08:03;14.10;;;3.90;;
76136;SDS011;68622;53.128;17.966;2023-06-05T05:10:32;13.70;;;3.40;;
76136;SDS011;68622;53.128;17.966;2023-06-05T05:12:58;9.40;;;2.70;;
76136;SDS011;68622;53.128;17.966;2023-06-05T05:15:28;15.90;;;3.30;;
76136;SDS011;68622;53.128;17.966;2023-06-05T05:17:56;8.70;;;2.90;;
76136;SDS011;68622;53.128;17.966;2023-06-05T05:20:23;6.70;;;2.60;;
76136;SDS011;68622;53.128;17.966;2023-06-05T05:22:50;9.60;;;2.90;;
76136;SDS011;68622;53.128;17.966;2023-06-05T05:25:18;6.60;;;2.70;;
76136;SDS011;68622;53.128;17.966;2023-06-05T05:27:44;11.50;;;3.40;;
76136;SDS011;68622;53.128;17.966;2023-06-05T05:30:12;10.90;;;3.20;;
76136;SDS011;68622;53.128;17.966;2023-06-05T05:32:39;9.70;;;2.60;;
76136;SDS011;68622;53.128;17.966;2023-06-05T05:35:07;9.00;;;2.60;;
76136;SDS011;68622;53.128;17.966;2023-06-05T05:37:34;8.10;;;2.60;;
76136;SDS011;68622;53.128;17.966;2023-06-05T05:40:01;12.10;;;3.30;;
76136;SDS011;68622;53.128;17.966;2023-06-05T05:42:30;7.80;;;2.60;;
76136;SDS011;68622;53.128;17.966;2023-06-05T05:45:02;7.90;;;3.00;;
76136;SDS011;68622;53.128;17.966;2023-06-05T05:47:29;8.70;;;2.50;;
76136;SDS011;68622;53.128;17.966;2023-06-05T05:49:57;13.20;;;2.70;;
76136;SDS011;68622;53.128;17.966;2023-06-05T05:52:24;12.70;;;3.50;;
76136;SDS011;68622;53.128;17.966;2023-06-05T05:54:51;11.20;;;3.30;;
76136;SDS011;68622;53.128;17.966;2023-06-05T05:57:18;12.10;;;4.20;;
76136;SDS011;68622;53.128;17.966;2023-06-05T05:59:45;7.30;;;2.70;;
76136;SDS011;68622;53.128;17.966;2023-06-05T06:02:12;10.10;;;3.30;;
76136;SDS011;68622;53.128;17.966;2023-06-05T06:04:38;9.40;;;3.00;;
76136;SDS011;68622;53.128;17.966;2023-06-05T06:07:07;10.90;;;3.10;;
76136;SDS011;68622;53.128;17.966;2023-06-05T06:09:34;6.70;;;2.70;;
76136;SDS011;68622;53.128;17.966;2023-06-05T06:12:02;9.80;;;3.10;;
76136;SDS011;68622;53.128;17.966;2023-06-05T06:14:35;8.70;;;3.20;;
76136;SDS011;68622;53.128;17.966;2023-06-05T06:17:03;11.20;;;3.30;;
76136;SDS011;68622;53.128;17.966;2023-06-05T06:19:32;10.30;;;2.60;;
76136;SDS011;68622;53.128;17.966;2023-06-05T06:21:59;14.10;;;3.40;;
76136;SDS011;68622;53.128;17.966;2023-06-05T06:24:26;8.50;;;2.80;;
76136;SDS011;68622;53.128;17.966;2023-06-05T06:26:53;10.90;;;3.00;;
76136;SDS011;68622;53.128;17.966;2023-06-05T06:29:24;12.30;;;3.00;;
76136;SDS011;68622;53.128;17.966;2023-06-05T06:31:51;7.80;;;2.90;;
76136;SDS011;68622;53.128;17.966;2023-06-05T06:34:18;12.10;;;3.00;;
76136;SDS011;68622;53.128;17.966;2023-06-05T06:36:45;8.20;;;3.00;;
76136;SDS011;68622;53.128;17.966;2023-06-05T06:39:12;15.70;;;4.70;;
76136;SDS011;68622;53.128;17.966;2023-06-05T06:41:39;9.80;;;3.40;;
76136;SDS011;68622;53.128;17.966;2023-06-05T06:44:06;10.60;;;3.00;;
76136;SDS011;68622;53.128;17.966;2023-06-05T06:46:33;15.80;;;3.10;;
76136;SDS011;68622;53.128;17.966;2023-06-05T06:48:59;12.20;;;2.80;;
76136;SDS011;68622;53.128;17.966;2023-06-05T06:51:26;9.50;;;3.70;;
76136;SDS011;68622;53.128;17.966;2023-06-05T06:53:53;9.80;;;2.40;;
76136;SDS011;68622;53.128;17.966;2023-06-05T06:56:20;9.70;;;2.70;;
76136;SDS011;68622;53.128;17.966;2023-06-05T06:58:47;12.00;;;3.00;;
76136;SDS011;68622;53.128;17.966;2023-06-05T07:01:15;12.80;;;2.90;;
76136;SDS011;68622;53.128;17.966;2023-06-05T07:03:42;10.70;;;2.50;;
76136;SDS011;68622;53.128;17.966;2023-06-05T07:06:09;9.00;;;2.60;;
76136;SDS011;68622;53.128;17.966;2023-06-05T07:08:38;12.60;;;2.50;;
76136;SDS011;68622;53.128;17.966;2023-06-05T07:11:05;8.50;;;2.70;;
76136;SDS011;68622;53.128;17.966;2023-06-05T07:13:33;10.00;;;2.40;;
76136;SDS011;68622;53.128;17.966;2023-06-05T07:15:59;7.30;;;2.10;;
76136;SDS011;68622;53.128;17.966;2023-06-05T07:18:26;9.90;;;2.40;;
76136;SDS011;68622;53.128;17.966;2023-06-05T07:20:53;8.00;;;2.20;;
76136;SDS011;68622;53.128;17.966;2023-06-05T07:23:20;7.20;;;1.80;;
76136;SDS011;68622;53.128;17.966;2023-06-05T07:25:48;8.50;;;2.50;;
76136;SDS011;68622;53.128;17.966;2023-06-05T07:28:14;9.90;;;2.80;;
76136;SDS011;68622;53.128;17.966;2023-06-05T07:30:42;9.20;;;3.10;;
76136;SDS011;68622;53.128;17.966;2023-06-05T07:33:12;9.30;;;2.90;;
76136;SDS011;68622;53.128;17.966;2023-06-05T07:35:39;9.20;;;1.80;;
76136;SDS011;68622;53.128;17.966;2023-06-05T07:38:06;6.90;;;1.70;;
76136;SDS011;68622;53.128;17.966;2023-06-05T07:40:32;8.50;;;2.20;;
76136;SDS011;68622;53.128;17.966;2023-06-05T07:42:59;17.70;;;3.00;;
76136;SDS011;68622;53.128;17.966;2023-06-05T07:45:26;9.80;;;2.00;;
76136;SDS011;68622;53.128;17.966;2023-06-05T07:47:52;8.20;;;1.90;;
76136;SDS011;68622;53.128;17.966;2023-06-05T07:50:19;6.40;;;2.10;;
76136;SDS011;68622;53.128;17.966;2023-06-05T07:52:47;9.00;;;2.10;;
76136;SDS011;68622;53.128;17.966;2023-06-05T07:55:13;6.60;;;2.00;;
76136;SDS011;68622;53.128;17.966;2023-06-05T07:57:40;6.70;;;1.70;;
76136;SDS011;68622;53.128;17.966;2023-06-05T08:00:07;7.60;;;1.80;;
76136;SDS011;68622;53.128;17.966;2023-06-05T08:02:39;4.80;;;1.30;;
76136;SDS011;68622;53.128;17.966;2023-06-05T08:05:07;5.90;;;1.60;;
76136;SDS011;68622;53.128;17.966;2023-06-05T08:07:34;5.30;;;1.40;;
76136;SDS011;68622;53.128;17.966;2023-06-05T08:10:01;7.80;;;1.80;;
76136;SDS011;68622;53.128;17.966;2023-06-05T08:12:27;6.70;;;1.60;;
76136;SDS011;68622;53.128;17.966;2023-06-05T08:14:54;5.50;;;1.70;;
76136;SDS011;68622;53.128;17.966;2023-06-05T08:17:21;6.10;;;1.80;;
76136;SDS011;68622;53.128;17.966;2023-06-05T08:19:47;8.70;;;1.60;;
76136;SDS011;68622;53.128;17.966;2023-06-05T08:22:14;7.70;;;2.00;;
76136;SDS011;68622;53.128;17.966;2023-06-05T08:24:41;7.00;;;1.90;;
76136;SDS011;68622;53.128;17.966;2023-06-05T08:27:07;5.90;;;2.10;;
76136;SDS011;68622;53.128;17.966;2023-06-05T08:29:34;5.40;;;1.80;;
76136;SDS011;68622;53.128;17.966;2023-06-05T08:32:03;5.10;;;1.60;;
76136;SDS011;68622;53.128;17.966;2023-06-05T08:34:31;6.70;;;1.50;;
76136;SDS011;68622;53.128;17.966;2023-06-05T08:36:58;7.90;;;1.80;;
76136;SDS011;68622;53.128;17.966;2023-06-05T08:39:25;5.60;;;1.70;;
76136;SDS011;68622;53.128;17.966;2023-06-05T08:41:55;10.60;;;2.10;;
76136;SDS011;68622;53.128;17.966;2023-06-05T08:44:27;7.80;;;1.90;;
76136;SDS011;68622;53.128;17.966;2023-06-05T08:47:03;8.70;;;2.10;;
76136;SDS011;68622;53.128;17.966;2023-06-05T08:49:30;5.00;;;1.40;;
76136;SDS011;68622;53.128;17.966;2023-06-05T08:52:00;5.90;;;1.50;;
76136;SDS011;68622;53.128;17.966;2023-06-05T08:54:34;8.00;;;2.10;;
76136;SDS011;68622;53.128;17.966;2023-06-05T08:57:05;11.00;;;1.90;;
76136;SDS011;68622;53.128;17.966;2023-06-05T08:59:33;7.20;;;2.10;;
76136;SDS011;68622;53.128;17.966;2023-06-05T09:02:00;8.10;;;1.80;;
76136;SDS011;68622;53.128;17.966;2023-06-05T09:04:27;7.60;;;1.80;;
76136;SDS011;68622;53.128;17.966;2023-06-05T09:06:57;5.00;;;1.60;;
76136;SDS011;68622;53.128;17.966;2023-06-05T09:09:25;8.50;;;1.80;;
76136;SDS011;68622;53.128;17.966;2023-06-05T09:12:03;6.70;;;1.70;;
76136;SDS011;68622;53.128;17.966;2023-06-05T09:14:31;5.80;;;2.00;;
76136;SDS011;68622;53.128;17.966;2023-06-05T09:16:59;7.20;;;2.00;;
76136;SDS011;68622;53.128;17.966;2023-06-05T09:19:37;6.10;;;1.80;;
76136;SDS011;68622;53.128;17.966;2023-06-05T09:22:06;4.00;;;1.40;;
76136;SDS011;68622;53.128;17.966;2023-06-05T09:24:36;6.80;;;1.80;;
76136;SDS011;68622;53.128;17.966;2023-06-05T09:27:04;7.90;;;1.60;;
76136;SDS011;68622;53.128;17.966;2023-06-05T09:29:41;5.40;;;1.90;;
76136;SDS011;68622;53.128;17.966;2023-06-05T09:32:16;6.30;;;2.20;;
76136;SDS011;68622;53.128;17.966;2023-06-05T09:34:54;8.10;;;2.00;;
76136;SDS011;68622;53.128;17.966;2023-06-05T09:37:34;5.30;;;1.70;;
76136;SDS011;68622;53.128;17.966;2023-06-05T09:40:04;7.40;;;1.70;;
76136;SDS011;68622;53.128;17.966;2023-06-05T09:42:34;6.30;;;1.50;;
76136;SDS011;68622;53.128;17.966;2023-06-05T09:45:01;7.60;;;2.00;;
76136;SDS011;68622;53.128;17.966;2023-06-05T09:47:28;7.20;;;2.30;;
76136;SDS011;68622;53.128;17.966;2023-06-05T09:49:55;6.20;;;1.80;;
76136;SDS011;68622;53.128;17.966;2023-06-05T09:52:22;7.30;;;1.90;;
76136;SDS011;68622;53.128;17.966;2023-06-05T09:54:49;4.30;;;1.70;;
76136;SDS011;68622;53.128;17.966;2023-06-05T09:57:21;8.70;;;1.90;;
76136;SDS011;68622;53.128;17.966;2023-06-05T09:59:49;10.00;;;2.30;;
76136;SDS011;68622;53.128;17.966;2023-06-05T10:02:21;6.40;;;1.50;;
76136;SDS011;68622;53.128;17.966;2023-06-05T10:04:54;8.10;;;1.60;;
76136;SDS011;68622;53.128;17.966;2023-06-05T10:07:25;7.30;;;1.80;;
76136;SDS011;68622;53.128;17.966;2023-06-05T10:09:52;6.00;;;1.60;;
76136;SDS011;68622;53.128;17.966;2023-06-05T10:12:20;5.90;;;1.70;;
76136;SDS011;68622;53.128;17.966;2023-06-05T10:14:50;6.10;;;1.50;;
76136;SDS011;68622;53.128;17.966;2023-06-05T10:17:19;6.50;;;1.90;;
76136;SDS011;68622;53.128;17.966;2023-06-05T10:19:46;6.90;;;2.20;;
76136;SDS011;68622;53.128;17.966;2023-06-05T10:22:13;9.80;;;2.00;;
76136;SDS011;68622;53.128;17.966;2023-06-05T10:24:46;5.30;;;1.80;;
76136;SDS011;68622;53.128;17.966;2023-06-05T10:27:31;5.20;;;1.60;;
76136;SDS011;68622;53.128;17.966;2023-06-05T10:30:11;9.60;;;2.10;;
76136;SDS011;68622;53.128;17.966;2023-06-05T10:33:17;7.60;;;2.10;;
76136;SDS011;68622;53.128;17.966;2023-06-05T10:36:05;5.80;;;1.70;;
76136;SDS011;68622;53.128;17.966;2023-06-05T10:38:35;7.00;;;1.90;;
76136;SDS011;68622;53.128;17.966;2023-06-05T10:41:04;7.80;;;2.10;;
76136;SDS011;68622;53.128;17.966;2023-06-05T10:43:36;8.80;;;1.90;;
76136;SDS011;68622;53.128;17.966;2023-06-05T10:51:47;6.60;;;1.80;;
76136;SDS011;68622;53.128;17.966;2023-06-05T10:59:19;7.30;;;1.80;;
76136;SDS011;68622;53.128;17.966;2023-06-05T11:07:27;8.70;;;3.00;;
76136;SDS011;68622;53.128;17.966;2023-06-05T11:15:10;6.20;;;1.80;;
76136;SDS011;68622;53.128;17.966;2023-06-05T11:17:42;7.60;;;1.90;;
76136;SDS011;68622;53.128;17.966;2023-06-05T11:25:24;6.70;;;1.70;;
76136;SDS011;68622;53.128;17.966;2023-06-05T11:27:56;4.80;;;1.70;;
76136;SDS011;68622;53.128;17.966;2023-06-05T11:30:26;6.20;;;1.90;;
76136;SDS011;68622;53.128;17.966;2023-06-05T11:33:05;9.60;;;2.20;;
76136;SDS011;68622;53.128;17.966;2023-06-05T11:35:35;5.20;;;2.20;;
76136;SDS011;68622;53.128;17.966;2023-06-05T11:38:12;5.10;;;1.90;;
76136;SDS011;68622;53.128;17.966;2023-06-05T11:40:39;6.30;;;2.30;;
76136;SDS011;68622;53.128;17.966;2023-06-05T11:43:08;6.10;;;1.70;;
76136;SDS011;68622;53.128;17.966;2023-06-05T11:45:37;8.70;;;2.00;;
76136;SDS011;68622;53.128;17.966;2023-06-05T11:48:12;4.90;;;1.80;;
76136;SDS011;68622;53.128;17.966;2023-06-05T11:53:26;8.30;;;2.20;;
76136;SDS011;68622;53.128;17.966;2023-06-05T11:55:55;4.90;;;2.00;;
76136;SDS011;68622;53.128;17.966;2023-06-05T11:58:38;8.30;;;2.10;;
76136;SDS011;68622;53.128;17.966;2023-06-05T12:01:07;6.50;;;1.80;;
76136;SDS011;68622;53.128;17.966;2023-06-05T12:03:39;7.20;;;1.80;;
76136;SDS011;68622;53.128;17.966;2023-06-05T12:06:05;10.40;;;2.70;;
76136;SDS011;68622;53.128;17.966;2023-06-05T12:08:33;5.50;;;1.80;;
76136;SDS011;68622;53.128;17.966;2023-06-05T12:11:02;8.90;;;1.90;;
76136;SDS011;68622;53.128;17.966;2023-06-05T12:13:49;7.20;;;2.30;;
76136;SDS011;68622;53.128;17.966;2023-06-05T12:16:17;7.60;;;2.20;;
76136;SDS011;68622;53.128;17.966;2023-06-05T12:18:46;7.00;;;2.40;;
76136;SDS011;68622;53.128;17.966;2023-06-05T12:21:21;9.20;;;1.90;;
76136;SDS011;68622;53.128;17.966;2023-06-05T12:23:49;7.40;;;2.20;;
76136;SDS011;68622;53.128;17.966;2023-06-05T12:26:17;6.60;;;1.70;;
76136;SDS011;68622;53.128;17.966;2023-06-05T12:28:44;7.80;;;2.10;;
76136;SDS011;68622;53.128;17.966;2023-06-05T12:34:02;6.20;;;2.00;;
76136;SDS011;68622;53.128;17.966;2023-06-05T12:36:31;7.90;;;2.00;;
76136;SDS011;68622;53.128;17.966;2023-06-05T12:39:09;6.20;;;2.20;;
76136;SDS011;68622;53.128;17.966;2023-06-05T12:41:37;8.60;;;2.20;;
76136;SDS011;68622;53.128;17.966;2023-06-05T12:44:04;6.90;;;2.40;;
76136;SDS011;68622;53.128;17.966;2023-06-05T12:46:32;5.20;;;1.70;;
76136;SDS011;68622;53.128;17.966;2023-06-05T12:48:59;6.90;;;2.30;;
76136;SDS011;68622;53.128;17.966;2023-06-05T12:51:27;6.50;;;1.80;;
76136;SDS011;68622;53.128;17.966;2023-06-05T12:53:54;5.60;;;2.40;;
76136;SDS011;68622;53.128;17.966;2023-06-05T12:56:22;6.80;;;1.50;;
76136;SDS011;68622;53.128;17.966;2023-06-05T12:58:54;8.80;;;3.60;;
76136;SDS011;68622;53.128;17.966;2023-06-05T13:01:22;7.90;;;2.20;;
76136;SDS011;68622;53.128;17.966;2023-06-05T13:03:51;6.10;;;2.00;;
76136;SDS011;68622;53.128;17.966;2023-06-05T13:06:18;6.80;;;2.30;;
76136;SDS011;68622;53.128;17.966;2023-06-05T13:08:45;6.10;;;2.10;;
76136;SDS011;68622;53.128;17.966;2023-06-05T13:11:13;6.70;;;1.90;;
76136;SDS011;68622;53.128;17.966;2023-06-05T13:13:40;7.80;;;2.10;;
76136;SDS011;68622;53.128;17.966;2023-06-05T13:16:07;5.80;;;1.90;;
76136;SDS011;68622;53.128;17.966;2023-06-05T13:18:36;7.30;;;2.40;;
76136;SDS011;68622;53.128;17.966;2023-06-05T13:21:03;6.00;;;2.20;;
76136;SDS011;68622;53.128;17.966;2023-06-05T13:23:31;6.30;;;2.10;;
76136;SDS011;68622;53.128;17.966;2023-06-05T13:25:59;8.00;;;2.10;;
76136;SDS011;68622;53.128;17.966;2023-06-05T13:28:27;9.70;;;2.30;;
76136;SDS011;68622;53.128;17.966;2023-06-05T13:30:54;6.20;;;2.30;;
76136;SDS011;68622;53.128;17.966;2023-06-05T13:33:22;8.00;;;2.40;;
76136;SDS011;68622;53.128;17.966;2023-06-05T13:35:51;7.20;;;2.40;;
76136;SDS011;68622;53.128;17.966;2023-06-05T13:38:22;7.50;;;2.20;;
76136;SDS011;68622;53.128;17.966;2023-06-05T13:40:49;11.30;;;2.50;;
76136;SDS011;68622;53.128;17.966;2023-06-05T13:43:18;8.00;;;2.50;;
76136;SDS011;68622;53.128;17.966;2023-06-05T13:45:45;5.70;;;1.90;;
76136;SDS011;68622;53.128;17.966;2023-06-05T13:48:12;7.60;;;2.00;;
76136;SDS011;68622;53.128;17.966;2023-06-05T13:50:38;5.80;;;1.80;;
76136;SDS011;68622;53.128;17.966;2023-06-05T13:53:05;7.10;;;2.00;;
76136;SDS011;68622;53.128;17.966;2023-06-05T13:55:31;6.40;;;2.00;;
76136;SDS011;68622;53.128;17.966;2023-06-05T13:57:58;9.30;;;2.10;;
76136;SDS011;68622;53.128;17.966;2023-06-05T14:00:28;5.60;;;2.30;;
76136;SDS011;68622;53.128;17.966;2023-06-05T14:02:56;5.40;;;1.80;;
76136;SDS011;68622;53.128;17.966;2023-06-05T14:05:24;5.80;;;2.00;;
76136;SDS011;68622;53.128;17.966;2023-06-05T14:07:54;5.70;;;1.90;;
76136;SDS011;68622;53.128;17.966;2023-06-05T14:10:21;7.00;;;1.90;;
76136;SDS011;68622;53.128;17.966;2023-06-05T14:12:49;6.10;;;2.70;;
76136;SDS011;68622;53.128;17.966;2023-06-05T14:15:18;9.40;;;2.00;;
76136;SDS011;68622;53.128;17.966;2023-06-05T14:17:46;4.60;;;1.80;;
76136;SDS011;68622;53.128;17.966;2023-06-05T14:20:13;6.00;;;2.10;;
76136;SDS011;68622;53.128;17.966;2023-06-05T14:22:40;5.20;;;1.70;;
76136;SDS011;68622;53.128;17.966;2023-06-05T14:25:07;10.40;;;2.30;;
76136;SDS011;68622;53.128;17.966;2023-06-05T14:27:36;9.20;;;2.20;;
76136;SDS011;68622;53.128;17.966;2023-06-05T14:30:04;6.00;;;1.90;;
76136;SDS011;68622;53.128;17.966;2023-06-05T14:32:31;87.90;;;7.40;;
76136;SDS011;68622;53.128;17.966;2023-06-05T14:34:57;11.00;;;2.10;;
76136;SDS011;68622;53.128;17.966;2023-06-05T14:37:24;8.00;;;1.90;;
76136;SDS011;68622;53.128;17.966;2023-06-05T14:39:51;6.30;;;1.80;;
76136;SDS011;68622;53.128;17.966;2023-06-05T14:42:17;6.20;;;2.20;;
76136;SDS011;68622;53.128;17.966;2023-06-05T14:44:44;9.50;;;1.90;;
76136;SDS011;68622;53.128;17.966;2023-06-05T14:47:11;6.20;;;2.30;;
76136;SDS011;68622;53.128;17.966;2023-06-05T14:49:37;5.90;;;2.10;;
76136;SDS011;68622;53.128;17.966;2023-06-05T14:52:04;6.90;;;1.90;;
76136;SDS011;68622;53.128;17.966;2023-06-05T14:54:31;6.80;;;2.00;;
76136;SDS011;68622;53.128;17.966;2023-06-05T14:56:58;5.20;;;2.10;;
76136;SDS011;68622;53.128;17.966;2023-06-05T14:59:24;5.60;;;2.10;;
76136;SDS011;68622;53.128;17.966;2023-06-05T15:01:51;8.60;;;2.10;;
76136;SDS011;68622;53.128;17.966;2023-06-05T15:04:17;11.00;;;2.90;;
76136;SDS011;68622;53.128;17.966;2023-06-05T15:06:44;5.60;;;1.90;;
76136;SDS011;68622;53.128;17.966;2023-06-05T15:09:11;6.80;;;1.80;;
76136;SDS011;68622;53.128;17.966;2023-06-05T15:11:37;6.00;;;1.70;;
76136;SDS011;68622;53.128;17.966;2023-06-05T15:14:04;5.80;;;1.80;;